SCIE/CCP METAR and TAF weather

Enter ICAO airport designator
Station Type Date Time Source
SCIE METAR 2021/03/02 13:00 UTC NOAA

SCIE 021300Z 02005KT 2000 BR OVC005 13/13 Q1012


Station Type Date Time Source
SCIE Decoded METAR 2021/03/02 13:00 UTC NOAA

Concepcion, Chile (SCIE) 36-46S 073-03W
Mar 02, 2021 - 08:00 AM EST / 2021.03.02 1300 UTC
Wind: from the NNE (020 degrees) at 6 MPH (5 KT):0
Visibility: 1 mile(s):0
Sky conditions: overcast
Weather: mist
Temperature: 55 F (13 C)
Dew Point: 55 F (13 C)
Relative Humidity: 100%
Pressure (altimeter): 29.88 in. Hg (1012 hPa)
ob: SCIE 021300Z 02005KT 2000 BR OVC005 13/13 Q1012
cycle: 13

Station Type Date Time Source
SCIE TAF 2021/03/02 12:03 UTC NOAA

TAF TAF SCIE 021000Z 0212/0312 02006KT 2000 BR OVC003 TX22/0218Z TN12/0311Z
TEMPO 0212/0214 5000 BR OVC008
BECMG 0214/0216 9999 BKN010
BECMG 0216/0218 33010KT SCT012
BECMG 0302/0304 01005KT
TEMPO 0306/0312 BKN012

Example: see airport list